sensor_id;sensor_type;location;lat;lon;timestamp;P1;durP1;ratioP1;P2;durP2;ratioP2
75295;SDS011;64623;44.738;37.804;2023-05-31T00:00:44;9.85;;;6.18;;
75295;SDS011;64623;44.738;37.804;2023-05-31T00:01:47;10.48;;;6.35;;
75295;SDS011;64623;44.738;37.804;2023-05-31T00:02:50;10.10;;;6.43;;
75295;SDS011;64623;44.738;37.804;2023-05-31T00:03:53;9.63;;;5.88;;
75295;SDS011;64623;44.738;37.804;2023-05-31T00:04:56;9.93;;;6.38;;
75295;SDS011;64623;44.738;37.804;2023-05-31T00:05:59;10.52;;;6.65;;
75295;SDS011;64623;44.738;37.804;2023-05-31T00:07:02;10.07;;;5.95;;
75295;SDS011;64623;44.738;37.804;2023-05-31T00:08:05;9.55;;;6.60;;
75295;SDS011;64623;44.738;37.804;2023-05-31T00:09:08;11.07;;;5.97;;
75295;SDS011;64623;44.738;37.804;2023-05-31T00:10:12;10.20;;;6.18;;
75295;SDS011;64623;44.738;37.804;2023-05-31T00:11:15;11.07;;;6.20;;
75295;SDS011;64623;44.738;37.804;2023-05-31T00:12:18;8.10;;;6.18;;
75295;SDS011;64623;44.738;37.804;2023-05-31T00:13:21;10.10;;;6.95;;
75295;SDS011;64623;44.738;37.804;2023-05-31T00:14:24;12.80;;;7.28;;
75295;SDS011;64623;44.738;37.804;2023-05-31T00:15:27;10.32;;;6.63;;
75295;SDS011;64623;44.738;37.804;2023-05-31T00:16:30;13.00;;;6.47;;
75295;SDS011;64623;44.738;37.804;2023-05-31T00:17:53;10.98;;;6.90;;
75295;SDS011;64623;44.738;37.804;2023-05-31T00:18:56;8.77;;;5.93;;
75295;SDS011;64623;44.738;37.804;2023-05-31T00:20:00;12.68;;;6.70;;
75295;SDS011;64623;44.738;37.804;2023-05-31T00:21:04;11.32;;;6.57;;
75295;SDS011;64623;44.738;37.804;2023-05-31T00:22:07;11.13;;;6.13;;
75295;SDS011;64623;44.738;37.804;2023-05-31T00:23:10;11.95;;;6.82;;
75295;SDS011;64623;44.738;37.804;2023-05-31T00:24:13;12.15;;;7.07;;
75295;SDS011;64623;44.738;37.804;2023-05-31T00:25:16;10.88;;;7.35;;
75295;SDS011;64623;44.738;37.804;2023-05-31T00:26:19;10.77;;;6.47;;
75295;SDS011;64623;44.738;37.804;2023-05-31T00:27:22;12.95;;;7.03;;
75295;SDS011;64623;44.738;37.804;2023-05-31T00:28:25;11.68;;;6.60;;
75295;SDS011;64623;44.738;37.804;2023-05-31T00:29:28;12.15;;;7.22;;
75295;SDS011;64623;44.738;37.804;2023-05-31T00:30:31;11.02;;;6.53;;
75295;SDS011;64623;44.738;37.804;2023-05-31T00:31:34;11.63;;;6.60;;
75295;SDS011;64623;44.738;37.804;2023-05-31T00:32:37;9.57;;;6.70;;
75295;SDS011;64623;44.738;37.804;2023-05-31T00:33:43;12.95;;;6.40;;
75295;SDS011;64623;44.738;37.804;2023-05-31T00:34:46;11.75;;;6.10;;
75295;SDS011;64623;44.738;37.804;2023-05-31T00:35:49;13.02;;;6.85;;
75295;SDS011;64623;44.738;37.804;2023-05-31T00:36:52;11.48;;;5.97;;
75295;SDS011;64623;44.738;37.804;2023-05-31T00:37:54;18.10;;;8.68;;
75295;SDS011;64623;44.738;37.804;2023-05-31T00:38:57;24.25;;;8.68;;
75295;SDS011;64623;44.738;37.804;2023-05-31T00:40:00;16.75;;;8.05;;
75295;SDS011;64623;44.738;37.804;2023-05-31T00:41:03;15.07;;;6.85;;
75295;SDS011;64623;44.738;37.804;2023-05-31T00:42:06;12.55;;;6.95;;
75295;SDS011;64623;44.738;37.804;2023-05-31T00:43:10;11.77;;;7.20;;
75295;SDS011;64623;44.738;37.804;2023-05-31T00:44:13;13.02;;;7.05;;
75295;SDS011;64623;44.738;37.804;2023-05-31T00:45:16;17.85;;;6.95;;
75295;SDS011;64623;44.738;37.804;2023-05-31T00:46:28;13.48;;;7.10;;
75295;SDS011;64623;44.738;37.804;2023-05-31T00:47:34;11.07;;;6.57;;
75295;SDS011;64623;44.738;37.804;2023-05-31T00:48:37;12.77;;;7.57;;
75295;SDS011;64623;44.738;37.804;2023-05-31T00:49:43;9.27;;;6.05;;
75295;SDS011;64623;44.738;37.804;2023-05-31T00:50:45;13.40;;;7.03;;
75295;SDS011;64623;44.738;37.804;2023-05-31T00:51:50;11.73;;;6.88;;
75295;SDS011;64623;44.738;37.804;2023-05-31T00:52:53;12.85;;;6.50;;
75295;SDS011;64623;44.738;37.804;2023-05-31T00:53:59;14.07;;;7.18;;
75295;SDS011;64623;44.738;37.804;2023-05-31T00:55:03;12.20;;;6.38;;
75295;SDS011;64623;44.738;37.804;2023-05-31T00:56:06;14.05;;;6.07;;
75295;SDS011;64623;44.738;37.804;2023-05-31T00:57:10;15.13;;;7.43;;
75295;SDS011;64623;44.738;37.804;2023-05-31T00:58:13;11.13;;;6.25;;
75295;SDS011;64623;44.738;37.804;2023-05-31T00:59:17;15.73;;;7.00;;
75295;SDS011;64623;44.738;37.804;2023-05-31T01:00:19;12.73;;;7.47;;
75295;SDS011;64623;44.738;37.804;2023-05-31T01:01:23;11.30;;;6.65;;
75295;SDS011;64623;44.738;37.804;2023-05-31T01:02:29;12.48;;;7.70;;
75295;SDS011;64623;44.738;37.804;2023-05-31T01:03:34;17.10;;;8.57;;
75295;SDS011;64623;44.738;37.804;2023-05-31T01:04:38;11.55;;;7.63;;
75295;SDS011;64623;44.738;37.804;2023-05-31T01:05:41;16.63;;;8.05;;
75295;SDS011;64623;44.738;37.804;2023-05-31T01:06:46;11.23;;;7.57;;
75295;SDS011;64623;44.738;37.804;2023-05-31T01:07:55;14.93;;;7.60;;
75295;SDS011;64623;44.738;37.804;2023-05-31T01:09:03;21.70;;;8.95;;
75295;SDS011;64623;44.738;37.804;2023-05-31T01:10:07;30.45;;;9.05;;
75295;SDS011;64623;44.738;37.804;2023-05-31T01:11:15;17.50;;;7.80;;
75295;SDS011;64623;44.738;37.804;2023-05-31T01:17:32;33.65;;;8.30;;
75295;SDS011;64623;44.738;37.804;2023-05-31T01:18:52;50.10;;;10.02;;
75295;SDS011;64623;44.738;37.804;2023-05-31T01:20:09;17.33;;;4.63;;
75295;SDS011;64623;44.738;37.804;2023-05-31T01:21:17;26.95;;;6.40;;
75295;SDS011;64623;44.738;37.804;2023-05-31T01:27:50;22.65;;;4.78;;
75295;SDS011;64623;44.738;37.804;2023-05-31T01:28:55;33.75;;;6.07;;
75295;SDS011;64623;44.738;37.804;2023-05-31T01:30:02;19.73;;;5.68;;
75295;SDS011;64623;44.738;37.804;2023-05-31T01:31:08;27.30;;;5.45;;
75295;SDS011;64623;44.738;37.804;2023-05-31T01:32:17;10.00;;;4.82;;
75295;SDS011;64623;44.738;37.804;2023-05-31T01:33:22;8.73;;;3.45;;
75295;SDS011;64623;44.738;37.804;2023-05-31T01:34:25;8.27;;;3.95;;
75295;SDS011;64623;44.738;37.804;2023-05-31T01:35:28;8.35;;;3.72;;
75295;SDS011;64623;44.738;37.804;2023-05-31T01:36:31;10.57;;;4.38;;
75295;SDS011;64623;44.738;37.804;2023-05-31T01:37:34;13.18;;;4.43;;
75295;SDS011;64623;44.738;37.804;2023-05-31T01:38:39;13.80;;;4.55;;
75295;SDS011;64623;44.738;37.804;2023-05-31T01:39:41;10.35;;;4.75;;
75295;SDS011;64623;44.738;37.804;2023-05-31T01:40:45;17.65;;;4.45;;
75295;SDS011;64623;44.738;37.804;2023-05-31T01:41:48;16.52;;;5.45;;
75295;SDS011;64623;44.738;37.804;2023-05-31T01:42:52;12.70;;;5.47;;
75295;SDS011;64623;44.738;37.804;2023-05-31T01:43:55;13.68;;;5.45;;
75295;SDS011;64623;44.738;37.804;2023-05-31T01:45:00;12.85;;;5.22;;
75295;SDS011;64623;44.738;37.804;2023-05-31T01:46:03;15.90;;;5.68;;
75295;SDS011;64623;44.738;37.804;2023-05-31T01:47:07;16.52;;;6.25;;
75295;SDS011;64623;44.738;37.804;2023-05-31T01:48:11;12.48;;;5.60;;
75295;SDS011;64623;44.738;37.804;2023-05-31T01:49:16;11.13;;;5.85;;
75295;SDS011;64623;44.738;37.804;2023-05-31T01:50:19;11.07;;;5.78;;
75295;SDS011;64623;44.738;37.804;2023-05-31T01:51:22;12.98;;;6.85;;
75295;SDS011;64623;44.738;37.804;2023-05-31T01:52:26;13.80;;;6.20;;
75295;SDS011;64623;44.738;37.804;2023-05-31T01:53:30;14.60;;;6.32;;
75295;SDS011;64623;44.738;37.804;2023-05-31T01:54:33;15.93;;;7.00;;
75295;SDS011;64623;44.738;37.804;2023-05-31T01:55:38;15.82;;;6.25;;
75295;SDS011;64623;44.738;37.804;2023-05-31T01:56:41;13.35;;;6.25;;
75295;SDS011;64623;44.738;37.804;2023-05-31T01:57:45;12.48;;;6.25;;
75295;SDS011;64623;44.738;37.804;2023-05-31T01:58:49;10.95;;;6.30;;
75295;SDS011;64623;44.738;37.804;2023-05-31T01:59:54;14.45;;;5.90;;
75295;SDS011;64623;44.738;37.804;2023-05-31T02:01:00;11.13;;;5.45;;
75295;SDS011;64623;44.738;37.804;2023-05-31T02:02:03;16.50;;;5.75;;
75295;SDS011;64623;44.738;37.804;2023-05-31T02:03:08;12.32;;;6.00;;
75295;SDS011;64623;44.738;37.804;2023-05-31T02:04:11;14.90;;;5.47;;
75295;SDS011;64623;44.738;37.804;2023-05-31T02:05:14;10.30;;;5.65;;
75295;SDS011;64623;44.738;37.804;2023-05-31T02:06:17;15.82;;;5.45;;
75295;SDS011;64623;44.738;37.804;2023-05-31T02:07:20;21.38;;;5.05;;
75295;SDS011;64623;44.738;37.804;2023-05-31T02:08:23;11.10;;;3.35;;
75295;SDS011;64623;44.738;37.804;2023-05-31T02:09:27;16.48;;;4.88;;
75295;SDS011;64623;44.738;37.804;2023-05-31T02:10:30;11.35;;;4.10;;
75295;SDS011;64623;44.738;37.804;2023-05-31T02:11:33;12.85;;;3.67;;
75295;SDS011;64623;44.738;37.804;2023-05-31T02:12:37;10.35;;;3.38;;
75295;SDS011;64623;44.738;37.804;2023-05-31T02:13:40;15.32;;;4.30;;
75295;SDS011;64623;44.738;37.804;2023-05-31T02:14:43;19.70;;;5.18;;
75295;SDS011;64623;44.738;37.804;2023-05-31T02:15:46;7.07;;;2.83;;
75295;SDS011;64623;44.738;37.804;2023-05-31T02:16:49;23.48;;;4.63;;
75295;SDS011;64623;44.738;37.804;2023-05-31T02:17:52;10.85;;;3.25;;
75295;SDS011;64623;44.738;37.804;2023-05-31T02:18:58;11.20;;;3.13;;
75295;SDS011;64623;44.738;37.804;2023-05-31T02:20:01;26.67;;;5.15;;
75295;SDS011;64623;44.738;37.804;2023-05-31T02:21:04;9.77;;;3.63;;
75295;SDS011;64623;44.738;37.804;2023-05-31T02:22:08;18.92;;;5.00;;
75295;SDS011;64623;44.738;37.804;2023-05-31T02:23:11;15.25;;;4.13;;
75295;SDS011;64623;44.738;37.804;2023-05-31T02:24:14;19.95;;;5.53;;
75295;SDS011;64623;44.738;37.804;2023-05-31T02:25:17;43.20;;;7.05;;
75295;SDS011;64623;44.738;37.804;2023-05-31T02:26:20;17.92;;;4.43;;
75295;SDS011;64623;44.738;37.804;2023-05-31T02:27:25;15.10;;;4.30;;
75295;SDS011;64623;44.738;37.804;2023-05-31T02:28:28;19.75;;;4.70;;
75295;SDS011;64623;44.738;37.804;2023-05-31T02:29:30;20.30;;;4.80;;
75295;SDS011;64623;44.738;37.804;2023-05-31T02:30:34;24.73;;;5.15;;
75295;SDS011;64623;44.738;37.804;2023-05-31T02:31:38;36.20;;;7.80;;
75295;SDS011;64623;44.738;37.804;2023-05-31T02:32:41;16.15;;;3.92;;
75295;SDS011;64623;44.738;37.804;2023-05-31T02:33:45;11.52;;;4.60;;
75295;SDS011;64623;44.738;37.804;2023-05-31T02:34:47;14.00;;;4.28;;
75295;SDS011;64623;44.738;37.804;2023-05-31T02:35:50;15.20;;;3.65;;
75295;SDS011;64623;44.738;37.804;2023-05-31T02:36:54;21.65;;;4.18;;
75295;SDS011;64623;44.738;37.804;2023-05-31T02:37:57;18.83;;;5.03;;
75295;SDS011;64623;44.738;37.804;2023-05-31T02:39:00;17.75;;;4.95;;
75295;SDS011;64623;44.738;37.804;2023-05-31T02:40:03;16.45;;;5.28;;
75295;SDS011;64623;44.738;37.804;2023-05-31T02:41:10;16.80;;;4.35;;
75295;SDS011;64623;44.738;37.804;2023-05-31T02:42:14;33.15;;;6.75;;
75295;SDS011;64623;44.738;37.804;2023-05-31T02:43:17;31.20;;;6.95;;
75295;SDS011;64623;44.738;37.804;2023-05-31T02:44:20;40.05;;;7.25;;
75295;SDS011;64623;44.738;37.804;2023-05-31T02:45:23;33.80;;;6.07;;
75295;SDS011;64623;44.738;37.804;2023-05-31T02:46:26;14.68;;;4.55;;
75295;SDS011;64623;44.738;37.804;2023-05-31T02:47:29;9.05;;;4.03;;
75295;SDS011;64623;44.738;37.804;2023-05-31T02:48:32;9.95;;;3.70;;
75295;SDS011;64623;44.738;37.804;2023-05-31T02:49:35;8.10;;;4.20;;
75295;SDS011;64623;44.738;37.804;2023-05-31T02:50:38;8.93;;;4.22;;
75295;SDS011;64623;44.738;37.804;2023-05-31T02:51:54;14.82;;;3.70;;
75295;SDS011;64623;44.738;37.804;2023-05-31T02:52:58;12.27;;;4.85;;
75295;SDS011;64623;44.738;37.804;2023-05-31T02:54:11;15.60;;;4.68;;
75295;SDS011;64623;44.738;37.804;2023-05-31T02:55:14;9.02;;;3.92;;
75295;SDS011;64623;44.738;37.804;2023-05-31T02:56:36;11.48;;;3.88;;
75295;SDS011;64623;44.738;37.804;2023-05-31T02:57:46;10.68;;;4.10;;
75295;SDS011;64623;44.738;37.804;2023-05-31T02:58:51;10.98;;;4.38;;
75295;SDS011;64623;44.738;37.804;2023-05-31T02:59:55;23.58;;;5.20;;
75295;SDS011;64623;44.738;37.804;2023-05-31T03:00:59;11.52;;;4.60;;
75295;SDS011;64623;44.738;37.804;2023-05-31T03:02:03;18.02;;;5.07;;
75295;SDS011;64623;44.738;37.804;2023-05-31T03:03:15;26.15;;;5.53;;
75295;SDS011;64623;44.738;37.804;2023-05-31T03:04:32;22.05;;;5.88;;
75295;SDS011;64623;44.738;37.804;2023-05-31T03:05:35;15.07;;;4.60;;
75295;SDS011;64623;44.738;37.804;2023-05-31T03:06:38;15.70;;;4.32;;
75295;SDS011;64623;44.738;37.804;2023-05-31T03:07:42;15.13;;;4.57;;
75295;SDS011;64623;44.738;37.804;2023-05-31T03:08:45;11.00;;;4.07;;
75295;SDS011;64623;44.738;37.804;2023-05-31T03:09:48;8.50;;;4.13;;
75295;SDS011;64623;44.738;37.804;2023-05-31T03:10:51;14.05;;;4.25;;
75295;SDS011;64623;44.738;37.804;2023-05-31T03:11:54;10.02;;;4.82;;
75295;SDS011;64623;44.738;37.804;2023-05-31T03:12:58;7.68;;;4.22;;
75295;SDS011;64623;44.738;37.804;2023-05-31T03:14:01;11.75;;;5.18;;
75295;SDS011;64623;44.738;37.804;2023-05-31T03:15:24;13.52;;;4.50;;
75295;SDS011;64623;44.738;37.804;2023-05-31T03:16:27;10.98;;;4.15;;
75295;SDS011;64623;44.738;37.804;2023-05-31T03:17:31;8.75;;;4.13;;
75295;SDS011;64623;44.738;37.804;2023-05-31T03:18:33;10.48;;;4.10;;
75295;SDS011;64623;44.738;37.804;2023-05-31T03:19:37;10.32;;;4.55;;
75295;SDS011;64623;44.738;37.804;2023-05-31T03:20:40;7.70;;;4.43;;
75295;SDS011;64623;44.738;37.804;2023-05-31T03:21:43;9.45;;;4.68;;
75295;SDS011;64623;44.738;37.804;2023-05-31T03:22:47;9.63;;;4.38;;
75295;SDS011;64623;44.738;37.804;2023-05-31T03:23:49;10.95;;;4.50;;
75295;SDS011;64623;44.738;37.804;2023-05-31T03:24:52;10.60;;;4.85;;
75295;SDS011;64623;44.738;37.804;2023-05-31T03:25:55;10.55;;;4.07;;
75295;SDS011;64623;44.738;37.804;2023-05-31T03:26:58;9.95;;;4.32;;
75295;SDS011;64623;44.738;37.804;2023-05-31T03:28:01;11.98;;;5.72;;
75295;SDS011;64623;44.738;37.804;2023-05-31T03:29:07;6.88;;;4.10;;
75295;SDS011;64623;44.738;37.804;2023-05-31T03:30:10;9.93;;;4.00;;
75295;SDS011;64623;44.738;37.804;2023-05-31T03:31:22;9.70;;;4.53;;
75295;SDS011;64623;44.738;37.804;2023-05-31T03:32:25;12.95;;;3.90;;
75295;SDS011;64623;44.738;37.804;2023-05-31T03:33:28;11.35;;;3.90;;
75295;SDS011;64623;44.738;37.804;2023-05-31T03:34:31;8.80;;;4.18;;
75295;SDS011;64623;44.738;37.804;2023-05-31T03:35:35;13.57;;;4.70;;
75295;SDS011;64623;44.738;37.804;2023-05-31T03:36:39;10.68;;;4.13;;
75295;SDS011;64623;44.738;37.804;2023-05-31T03:38:00;8.30;;;5.05;;
75295;SDS011;64623;44.738;37.804;2023-05-31T03:39:04;11.40;;;4.72;;
75295;SDS011;64623;44.738;37.804;2023-05-31T03:40:08;13.43;;;4.43;;
75295;SDS011;64623;44.738;37.804;2023-05-31T03:41:11;12.25;;;4.60;;
75295;SDS011;64623;44.738;37.804;2023-05-31T03:42:14;12.45;;;4.32;;
75295;SDS011;64623;44.738;37.804;2023-05-31T03:43:18;11.02;;;5.38;;
75295;SDS011;64623;44.738;37.804;2023-05-31T03:44:21;10.07;;;4.93;;
75295;SDS011;64623;44.738;37.804;2023-05-31T03:45:24;8.43;;;5.35;;
75295;SDS011;64623;44.738;37.804;2023-05-31T03:46:29;11.35;;;5.32;;
75295;SDS011;64623;44.738;37.804;2023-05-31T03:47:32;8.55;;;4.97;;
75295;SDS011;64623;44.738;37.804;2023-05-31T03:48:35;12.30;;;5.43;;
75295;SDS011;64623;44.738;37.804;2023-05-31T03:49:38;10.48;;;4.80;;
75295;SDS011;64623;44.738;37.804;2023-05-31T03:50:41;9.73;;;4.63;;
75295;SDS011;64623;44.738;37.804;2023-05-31T03:51:45;8.57;;;4.35;;
75295;SDS011;64623;44.738;37.804;2023-05-31T03:52:48;10.98;;;4.32;;
75295;SDS011;64623;44.738;37.804;2023-05-31T03:53:51;7.93;;;4.97;;
75295;SDS011;64623;44.738;37.804;2023-05-31T03:54:54;9.23;;;5.32;;
75295;SDS011;64623;44.738;37.804;2023-05-31T03:55:57;10.48;;;4.82;;
75295;SDS011;64623;44.738;37.804;2023-05-31T03:57:00;7.03;;;4.22;;
75295;SDS011;64623;44.738;37.804;2023-05-31T03:58:03;10.43;;;5.25;;
75295;SDS011;64623;44.738;37.804;2023-05-31T03:59:10;7.25;;;4.80;;
75295;SDS011;64623;44.738;37.804;2023-05-31T04:00:13;10.48;;;5.30;;
75295;SDS011;64623;44.738;37.804;2023-05-31T04:01:23;9.77;;;4.13;;
75295;SDS011;64623;44.738;37.804;2023-05-31T04:02:26;13.88;;;4.32;;
75295;SDS011;64623;44.738;37.804;2023-05-31T04:03:30;8.23;;;4.90;;
75295;SDS011;64623;44.738;37.804;2023-05-31T04:04:33;7.57;;;3.88;;
75295;SDS011;64623;44.738;37.804;2023-05-31T04:05:36;6.32;;;3.78;;
75295;SDS011;64623;44.738;37.804;2023-05-31T04:06:41;9.30;;;4.53;;
75295;SDS011;64623;44.738;37.804;2023-05-31T04:07:44;7.38;;;3.35;;
75295;SDS011;64623;44.738;37.804;2023-05-31T04:08:47;7.70;;;4.13;;
75295;SDS011;64623;44.738;37.804;2023-05-31T04:09:51;10.85;;;4.75;;
75295;SDS011;64623;44.738;37.804;2023-05-31T04:10:53;10.48;;;4.60;;
75295;SDS011;64623;44.738;37.804;2023-05-31T04:11:56;7.90;;;4.07;;
75295;SDS011;64623;44.738;37.804;2023-05-31T04:13:00;7.65;;;3.47;;
75295;SDS011;64623;44.738;37.804;2023-05-31T04:14:03;8.23;;;4.45;;
75295;SDS011;64623;44.738;37.804;2023-05-31T04:15:06;11.10;;;4.65;;
75295;SDS011;64623;44.738;37.804;2023-05-31T04:16:09;8.88;;;4.30;;
75295;SDS011;64623;44.738;37.804;2023-05-31T04:17:12;7.88;;;4.20;;
75295;SDS011;64623;44.738;37.804;2023-05-31T04:18:15;12.98;;;4.68;;
75295;SDS011;64623;44.738;37.804;2023-05-31T04:19:18;14.68;;;4.18;;
75295;SDS011;64623;44.738;37.804;2023-05-31T04:20:22;7.75;;;3.70;;
75295;SDS011;64623;44.738;37.804;2023-05-31T04:21:26;12.85;;;4.35;;
75295;SDS011;64623;44.738;37.804;2023-05-31T04:22:28;13.18;;;3.88;;
75295;SDS011;64623;44.738;37.804;2023-05-31T04:23:32;11.35;;;5.30;;
75295;SDS011;64623;44.738;37.804;2023-05-31T04:24:35;11.18;;;5.28;;
75295;SDS011;64623;44.738;37.804;2023-05-31T04:25:37;11.25;;;3.90;;
75295;SDS011;64623;44.738;37.804;2023-05-31T04:26:41;10.15;;;4.70;;
75295;SDS011;64623;44.738;37.804;2023-05-31T04:27:45;7.55;;;3.90;;
75295;SDS011;64623;44.738;37.804;2023-05-31T04:28:49;10.98;;;4.07;;
75295;SDS011;64623;44.738;37.804;2023-05-31T04:31:00;6.25;;;4.03;;
75295;SDS011;64623;44.738;37.804;2023-05-31T04:32:04;7.18;;;4.45;;
75295;SDS011;64623;44.738;37.804;2023-05-31T04:33:07;9.57;;;3.85;;
75295;SDS011;64623;44.738;37.804;2023-05-31T04:34:10;8.82;;;3.92;;
75295;SDS011;64623;44.738;37.804;2023-05-31T04:35:21;8.70;;;4.78;;
75295;SDS011;64623;44.738;37.804;2023-05-31T04:36:25;9.18;;;4.60;;
75295;SDS011;64623;44.738;37.804;2023-05-31T04:37:28;7.35;;;3.92;;
75295;SDS011;64623;44.738;37.804;2023-05-31T04:38:33;7.50;;;4.28;;
75295;SDS011;64623;44.738;37.804;2023-05-31T04:39:37;8.13;;;4.13;;
75295;SDS011;64623;44.738;37.804;2023-05-31T04:40:40;8.50;;;4.75;;
75295;SDS011;64623;44.738;37.804;2023-05-31T04:41:44;9.57;;;5.53;;
75295;SDS011;64623;44.738;37.804;2023-05-31T04:42:47;11.00;;;5.57;;
75295;SDS011;64623;44.738;37.804;2023-05-31T04:44:02;12.15;;;5.40;;
75295;SDS011;64623;44.738;37.804;2023-05-31T04:45:06;8.85;;;5.05;;
75295;SDS011;64623;44.738;37.804;2023-05-31T04:46:19;10.18;;;5.18;;
75295;SDS011;64623;44.738;37.804;2023-05-31T04:47:25;11.30;;;5.30;;
75295;SDS011;64623;44.738;37.804;2023-05-31T04:48:30;9.20;;;4.75;;
75295;SDS011;64623;44.738;37.804;2023-05-31T04:49:34;8.40;;;4.32;;
75295;SDS011;64623;44.738;37.804;2023-05-31T04:50:41;8.32;;;5.40;;
75295;SDS011;64623;44.738;37.804;2023-05-31T04:51:44;9.80;;;5.35;;
75295;SDS011;64623;44.738;37.804;2023-05-31T04:52:47;7.15;;;4.25;;
75295;SDS011;64623;44.738;37.804;2023-05-31T04:53:51;9.13;;;4.03;;
75295;SDS011;64623;44.738;37.804;2023-05-31T04:54:56;8.68;;;3.80;;
75295;SDS011;64623;44.738;37.804;2023-05-31T04:55:59;7.53;;;4.32;;
75295;SDS011;64623;44.738;37.804;2023-05-31T04:57:07;7.85;;;3.22;;
75295;SDS011;64623;44.738;37.804;2023-05-31T04:58:10;10.43;;;3.15;;
75295;SDS011;64623;44.738;37.804;2023-05-31T04:59:13;7.00;;;3.58;;
75295;SDS011;64623;44.738;37.804;2023-05-31T05:00:17;10.25;;;3.50;;
75295;SDS011;64623;44.738;37.804;2023-05-31T05:01:34;10.60;;;3.30;;
75295;SDS011;64623;44.738;37.804;2023-05-31T05:02:43;7.47;;;3.30;;
75295;SDS011;64623;44.738;37.804;2023-05-31T05:03:47;6.82;;;2.95;;
75295;SDS011;64623;44.738;37.804;2023-05-31T05:04:50;9.70;;;2.95;;
75295;SDS011;64623;44.738;37.804;2023-05-31T05:05:53;8.35;;;2.72;;
75295;SDS011;64623;44.738;37.804;2023-05-31T05:06:58;8.20;;;2.65;;
75295;SDS011;64623;44.738;37.804;2023-05-31T05:08:01;7.88;;;3.13;;
75295;SDS011;64623;44.738;37.804;2023-05-31T05:09:04;7.85;;;3.05;;
75295;SDS011;64623;44.738;37.804;2023-05-31T05:10:08;6.60;;;3.83;;
75295;SDS011;64623;44.738;37.804;2023-05-31T05:11:12;8.80;;;2.97;;
75295;SDS011;64623;44.738;37.804;2023-05-31T05:12:15;9.38;;;2.90;;
75295;SDS011;64623;44.738;37.804;2023-05-31T05:13:20;6.80;;;2.92;;
75295;SDS011;64623;44.738;37.804;2023-05-31T05:14:25;8.82;;;2.75;;
75295;SDS011;64623;44.738;37.804;2023-05-31T05:15:29;10.68;;;3.78;;
75295;SDS011;64623;44.738;37.804;2023-05-31T05:16:34;7.32;;;2.97;;
75295;SDS011;64623;44.738;37.804;2023-05-31T05:17:38;7.00;;;2.97;;
75295;SDS011;64623;44.738;37.804;2023-05-31T05:18:43;6.90;;;3.00;;
75295;SDS011;64623;44.738;37.804;2023-05-31T05:19:46;11.88;;;3.17;;
75295;SDS011;64623;44.738;37.804;2023-05-31T05:20:49;4.93;;;1.98;;
75295;SDS011;64623;44.738;37.804;2023-05-31T05:21:55;8.05;;;3.28;;
75295;SDS011;64623;44.738;37.804;2023-05-31T05:22:58;9.82;;;2.97;;
75295;SDS011;64623;44.738;37.804;2023-05-31T05:24:05;7.60;;;2.95;;
75295;SDS011;64623;44.738;37.804;2023-05-31T05:25:08;6.90;;;2.97;;
75295;SDS011;64623;44.738;37.804;2023-05-31T05:26:11;6.72;;;2.53;;
75295;SDS011;64623;44.738;37.804;2023-05-31T05:27:15;8.10;;;3.17;;
75295;SDS011;64623;44.738;37.804;2023-05-31T05:28:18;5.95;;;3.63;;
75295;SDS011;64623;44.738;37.804;2023-05-31T05:29:20;11.32;;;3.53;;
75295;SDS011;64623;44.738;37.804;2023-05-31T05:30:23;8.60;;;3.28;;
75295;SDS011;64623;44.738;37.804;2023-05-31T05:31:27;6.25;;;3.25;;
75295;SDS011;64623;44.738;37.804;2023-05-31T05:32:36;6.13;;;2.97;;
75295;SDS011;64623;44.738;37.804;2023-05-31T05:33:39;5.97;;;3.17;;
75295;SDS011;64623;44.738;37.804;2023-05-31T05:34:42;6.55;;;2.97;;
75295;SDS011;64623;44.738;37.804;2023-05-31T05:35:46;9.50;;;3.42;;
75295;SDS011;64623;44.738;37.804;2023-05-31T05:36:49;7.75;;;3.47;;
75295;SDS011;64623;44.738;37.804;2023-05-31T05:37:54;6.28;;;3.03;;
75295;SDS011;64623;44.738;37.804;2023-05-31T05:38:57;8.57;;;3.08;;
75295;SDS011;64623;44.738;37.804;2023-05-31T05:40:06;13.95;;;3.45;;
75295;SDS011;64623;44.738;37.804;2023-05-31T05:41:10;11.00;;;3.30;;
75295;SDS011;64623;44.738;37.804;2023-05-31T05:42:16;9.88;;;3.72;;
75295;SDS011;64623;44.738;37.804;2023-05-31T05:43:19;9.15;;;3.47;;
75295;SDS011;64623;44.738;37.804;2023-05-31T05:44:45;11.15;;;3.38;;
75295;SDS011;64623;44.738;37.804;2023-05-31T05:45:48;11.15;;;3.97;;
75295;SDS011;64623;44.738;37.804;2023-05-31T05:46:51;8.60;;;3.38;;
75295;SDS011;64623;44.738;37.804;2023-05-31T05:47:54;5.82;;;2.97;;
75295;SDS011;64623;44.738;37.804;2023-05-31T05:48:58;7.18;;;2.95;;
75295;SDS011;64623;44.738;37.804;2023-05-31T05:50:01;8.00;;;3.40;;
75295;SDS011;64623;44.738;37.804;2023-05-31T05:51:04;9.45;;;3.13;;
75295;SDS011;64623;44.738;37.804;2023-05-31T05:52:08;8.65;;;3.20;;
75295;SDS011;64623;44.738;37.804;2023-05-31T05:53:11;7.88;;;3.15;;
75295;SDS011;64623;44.738;37.804;2023-05-31T05:54:14;8.25;;;3.13;;
75295;SDS011;64623;44.738;37.804;2023-05-31T05:55:17;11.20;;;4.03;;
75295;SDS011;64623;44.738;37.804;2023-05-31T05:56:22;7.90;;;2.75;;
75295;SDS011;64623;44.738;37.804;2023-05-31T05:57:32;10.75;;;3.33;;
75295;SDS011;64623;44.738;37.804;2023-05-31T05:58:55;9.40;;;3.90;;
75295;SDS011;64623;44.738;37.804;2023-05-31T06:00:16;9.50;;;3.10;;
75295;SDS011;64623;44.738;37.804;2023-05-31T06:01:21;7.68;;;3.72;;
75295;SDS011;64623;44.738;37.804;2023-05-31T06:02:29;7.25;;;2.95;;
75295;SDS011;64623;44.738;37.804;2023-05-31T06:03:32;8.35;;;2.85;;
75295;SDS011;64623;44.738;37.804;2023-05-31T06:04:38;8.18;;;3.42;;
75295;SDS011;64623;44.738;37.804;2023-05-31T06:05:42;8.00;;;3.13;;
75295;SDS011;64623;44.738;37.804;2023-05-31T06:06:44;10.05;;;3.13;;
75295;SDS011;64623;44.738;37.804;2023-05-31T06:07:49;10.35;;;3.28;;
75295;SDS011;64623;44.738;37.804;2023-05-31T06:08:53;6.80;;;2.97;;
75295;SDS011;64623;44.738;37.804;2023-05-31T06:09:56;9.25;;;3.15;;
75295;SDS011;64623;44.738;37.804;2023-05-31T06:10:59;7.00;;;3.13;;
75295;SDS011;64623;44.738;37.804;2023-05-31T06:12:02;7.75;;;3.45;;
75295;SDS011;64623;44.738;37.804;2023-05-31T06:13:09;10.00;;;3.97;;
75295;SDS011;64623;44.738;37.804;2023-05-31T06:14:14;13.23;;;3.85;;
75295;SDS011;64623;44.738;37.804;2023-05-31T06:15:20;13.55;;;4.35;;
75295;SDS011;64623;44.738;37.804;2023-05-31T06:16:24;12.55;;;3.50;;
75295;SDS011;64623;44.738;37.804;2023-05-31T06:17:27;12.77;;;4.18;;
75295;SDS011;64623;44.738;37.804;2023-05-31T06:18:30;10.00;;;4.00;;
75295;SDS011;64623;44.738;37.804;2023-05-31T06:19:33;12.35;;;4.20;;
75295;SDS011;64623;44.738;37.804;2023-05-31T06:20:36;16.52;;;3.92;;
75295;SDS011;64623;44.738;37.804;2023-05-31T06:21:40;10.82;;;4.30;;
75295;SDS011;64623;44.738;37.804;2023-05-31T06:22:43;13.57;;;4.53;;
75295;SDS011;64623;44.738;37.804;2023-05-31T06:23:47;10.10;;;3.65;;
75295;SDS011;64623;44.738;37.804;2023-05-31T06:24:50;17.58;;;4.15;;
75295;SDS011;64623;44.738;37.804;2023-05-31T06:25:54;11.48;;;3.80;;
75295;SDS011;64623;44.738;37.804;2023-05-31T06:26:58;12.63;;;4.13;;
75295;SDS011;64623;44.738;37.804;2023-05-31T06:28:04;18.73;;;4.45;;
75295;SDS011;64623;44.738;37.804;2023-05-31T06:29:08;15.00;;;5.68;;
75295;SDS011;64623;44.738;37.804;2023-05-31T06:30:33;13.45;;;4.35;;
75295;SDS011;64623;44.738;37.804;2023-05-31T06:31:36;9.00;;;5.10;;